Time;durP1;ratioP1;P1;durP2;ratioP2;P2;SDS_P1;SDS_P2;PMS_P1;PMS_P2;Temp;Humidity;BMP_temperature;BMP_pressure;BME280_temperature;BME280_humidity;BME280_pressure;Samples;Min_cycle;Max_cycle;Signal;HPM_P1;HPM_P2
2022/12/26 00:01:59;;;;;;;48.00;21.40;;;4.20;99.90;;;;;;5013593;28;20287;-82
2022/12/26 00:04:26;;;;;;;46.03;20.30;;;4.30;99.90;;;;;;4980411;28;20713;-82
2022/12/26 00:07:13;;;;;;;47.80;21.40;;;4.40;99.90;;;;;;4995798;28;20225;-83
2022/12/26 00:09:41;;;;;;;44.87;21.03;;;4.30;99.90;;;;;;4995883;28;20642;-88
2022/12/26 00:12:08;;;;;;;47.70;21.97;;;4.30;99.90;;;;;;4995719;28;20200;-85
2022/12/26 00:14:38;;;;;;;46.47;21.47;;;4.30;99.90;;;;;;5013168;28;20200;-82
2022/12/26 00:17:07;;;;;;;48.40;21.73;;;4.30;99.90;;;;;;4995589;28;20228;-83
2022/12/26 00:19:34;;;;;;;46.73;20.97;;;4.20;99.90;;;;;;4998245;28;20299;-84
2022/12/26 00:22:01;;;;;;;49.77;21.87;;;4.20;99.90;;;;;;5029095;28;20638;-84
2022/12/26 00:24:28;;;;;;;46.73;22.17;;;4.30;99.90;;;;;;4995887;28;20204;-88
2022/12/26 00:26:55;;;;;;;43.90;20.80;;;4.30;99.90;;;;;;5012912;28;20251;-83
2022/12/26 00:29:26;;;;;;;48.23;21.73;;;4.40;99.90;;;;;;4996566;28;20237;-83
2022/12/26 00:31:56;;;;;;;51.03;22.43;;;4.30;99.90;;;;;;4996392;28;20187;-91
2022/12/26 00:34:23;;;;;;;47.70;21.57;;;4.30;99.90;;;;;;5028503;28;20724;-88
2022/12/26 00:36:51;;;;;;;47.93;22.07;;;4.30;99.90;;;;;;4995879;28;20189;-87
2022/12/26 00:39:18;;;;;;;47.10;22.00;;;4.40;99.90;;;;;;5012715;28;20210;-89
2022/12/26 00:41:45;;;;;;;45.83;20.33;;;4.40;99.90;;;;;;4995445;28;20205;-88
2022/12/26 00:44:13;;;;;;;51.60;22.77;;;4.30;99.90;;;;;;5012910;28;20637;-89
2022/12/26 00:46:40;;;;;;;46.67;21.27;;;4.30;99.90;;;;;;5028412;28;20255;-88
2022/12/26 00:49:07;;;;;;;47.17;20.97;;;4.30;99.90;;;;;;5013232;28;20572;-90
2022/12/26 00:51:34;;;;;;;47.97;21.53;;;4.40;99.90;;;;;;5013540;28;20195;-90
2022/12/26 00:54:01;;;;;;;47.20;20.50;;;4.30;99.90;;;;;;4995761;28;20216;-86
2022/12/26 00:56:28;;;;;;;49.33;21.27;;;4.40;99.90;;;;;;4995345;28;20195;-83
2022/12/26 00:58:55;;;;;;;49.63;21.83;;;4.40;99.90;;;;;;5013064;28;20190;-85
2022/12/26 01:01:23;;;;;;;46.30;21.20;;;4.40;99.90;;;;;;5013102;28;20629;-83
2022/12/26 01:03:51;;;;;;;49.97;21.83;;;4.50;99.90;;;;;;4996288;28;20201;-85
2022/12/26 01:06:18;;;;;;;42.73;20.40;;;4.50;99.90;;;;;;4999020;28;20306;-91
2022/12/26 01:08:45;;;;;;;41.17;20.03;;;4.50;99.90;;;;;;4999223;28;20190;-82
2022/12/26 01:11:14;;;;;;;48.43;21.33;;;4.50;99.90;;;;;;4998334;28;20215;-81
2022/12/26 01:13:42;;;;;;;45.47;21.03;;;4.60;99.90;;;;;;5015823;28;20205;-84
2022/12/26 01:16:09;;;;;;;45.93;21.10;;;4.60;99.90;;;;;;4999221;28;20272;-84
2022/12/26 01:18:36;;;;;;;42.63;20.47;;;4.50;99.90;;;;;;5031594;28;20200;-83
2022/12/26 01:21:09;;;;;;;42.80;19.93;;;4.60;99.90;;;;;;4998816;28;20291;-90
2022/12/26 01:23:40;;;;;;;43.97;19.57;;;4.60;99.90;;;;;;5016274;28;20196;-91
2022/12/26 01:26:08;;;;;;;41.67;19.70;;;4.60;99.90;;;;;;4998856;28;20219;-91
2022/12/26 01:29:04;;;;;;;44.87;20.00;;;4.80;99.90;;;;;;5014360;28;20229;-82
2022/12/26 01:31:36;;;;;;;42.33;19.47;;;4.80;99.90;;;;;;5020720;28;20192;-84
2022/12/26 01:34:08;;;;;;;46.00;20.23;;;4.70;99.90;;;;;;5024847;28;20592;-87
2022/12/26 01:36:35;;;;;;;43.30;20.13;;;4.60;99.90;;;;;;4999759;28;20216;-93
2022/12/26 01:39:03;;;;;;;44.60;20.10;;;4.60;99.90;;;;;;5000083;28;20645;-87
2022/12/26 01:41:38;;;;;;;49.33;21.00;;;4.60;99.90;;;;;;4999496;28;20786;-87
2022/12/26 01:44:45;;;;;;;44.30;19.80;;;4.60;99.90;;;;;;5016164;28;20269;-93
2022/12/26 01:47:22;;;;;;;47.60;20.43;;;4.50;99.90;;;;;;4983153;28;20223;-84
2022/12/26 01:49:56;;;;;;;46.20;20.03;;;4.60;99.90;;;;;;4982633;28;20192;-85
2022/12/26 01:52:34;;;;;;;41.77;20.10;;;4.50;99.90;;;;;;5016205;28;20636;-88
2022/12/26 01:55:11;;;;;;;46.30;20.80;;;4.50;99.90;;;;;;4998518;28;20203;-90
2022/12/26 01:57:41;;;;;;;48.17;21.23;;;4.60;99.90;;;;;;4999064;28;20189;-87
2022/12/26 02:00:14;;;;;;;47.53;22.47;;;4.60;99.90;;;;;;4998289;28;20197;-88
2022/12/26 02:05:34;;;;;;;49.20;22.37;;;4.50;99.90;;;;;;5007494;28;20205;-82
2022/12/26 02:08:22;;;;;;;54.57;23.10;;;4.50;99.90;;;;;;5028060;23;20240;-90
2022/12/26 02:11:26;;;;;;;52.20;22.63;;;4.50;99.90;;;;;;5017107;28;20201;-83
2022/12/26 02:13:55;;;;;;;50.93;23.27;;;4.60;99.90;;;;;;5033627;28;20195;-87
2022/12/26 02:16:24;;;;;;;52.97;23.90;;;4.50;99.90;;;;;;5034350;28;20287;-87
2022/12/26 02:18:52;;;;;;;51.40;22.40;;;4.50;99.90;;;;;;5050484;28;20196;-86
2022/12/26 02:21:47;;;;;;;54.43;23.57;;;4.40;99.90;;;;;;5033663;28;20540;-89
2022/12/26 02:24:44;;;;;;;52.87;23.27;;;4.50;99.90;;;;;;5033798;28;20206;-88
2022/12/26 02:27:49;;;;;;;52.03;23.37;;;4.50;99.90;;;;;;5019931;28;20247;-89
2022/12/26 02:30:35;;;;;;;55.23;23.87;;;4.50;99.90;;;;;;5033855;28;20267;-88
2022/12/26 02:33:34;;;;;;;51.93;22.93;;;4.50;99.90;;;;;;5034589;28;20195;-88
2022/12/26 02:36:13;;;;;;;56.33;23.67;;;4.40;99.90;;;;;;5033576;28;20230;-87
2022/12/26 02:38:47;;;;;;;56.63;24.20;;;4.40;99.90;;;;;;5035108;28;20191;-82
2022/12/26 02:41:23;;;;;;;57.63;24.93;;;4.40;99.90;;;;;;5049905;28;20206;-83
2022/12/26 02:47:23;;;;;;;52.80;23.80;;;4.40;99.90;;;;;;5034566;28;20215;-86
2022/12/26 03:15:10;;;;;;;57.10;23.37;;;4.50;99.90;;;;;;4996027;28;20637;-83
2022/12/26 03:17:44;;;;;;;53.27;23.87;;;4.40;99.90;;;;;;4996053;28;20212;-88
2022/12/26 03:20:22;;;;;;;56.47;23.27;;;4.40;99.90;;;;;;4995740;28;20227;-83
2022/12/26 03:22:53;;;;;;;61.20;23.60;;;4.40;99.90;;;;;;5012220;28;20283;-84
2022/12/26 03:28:16;;;;;;;48.33;21.73;;;4.40;99.90;;;;;;4995298;28;20596;-83
2022/12/26 03:30:49;;;;;;;50.10;21.80;;;4.30;99.90;;;;;;4979580;28;20211;-83
2022/12/26 03:36:33;;;;;;;51.17;22.27;;;4.30;99.90;;;;;;4995778;28;20208;-85
2022/12/26 04:21:07;;;;;;;50.70;22.87;;;4.30;99.90;;;;;;5031904;28;20199;-83
2022/12/26 04:44:25;;;;;;;51.07;23.10;;;4.20;99.90;;;;;;5036254;28;20192;-82
2022/12/26 04:46:55;;;;;;;50.10;22.50;;;4.10;99.90;;;;;;5035675;28;20579;-82
2022/12/26 04:52:11;;;;;;;46.10;22.47;;;4.20;99.90;;;;;;5035418;28;20695;-82
2022/12/26 04:54:39;;;;;;;46.90;22.03;;;4.10;99.90;;;;;;5036796;28;20192;-83
2022/12/26 04:57:07;;;;;;;48.80;22.83;;;4.20;99.90;;;;;;5035764;28;20219;-83
2022/12/26 04:59:34;;;;;;;45.83;21.37;;;4.30;99.90;;;;;;5035871;28;20200;-83
2022/12/26 05:10:27;;;;;;;44.27;21.40;;;4.10;99.90;;;;;;5035316;28;20226;-86
2022/12/26 05:12:54;;;;;;;42.27;20.90;;;4.10;99.90;;;;;;5035449;28;20235;-86
2022/12/26 05:15:22;;;;;;;41.17;20.07;;;4.10;99.90;;;;;;5035196;28;20204;-86
2022/12/26 05:29:11;;;;;;;38.27;19.77;;;4.10;99.90;;;;;;5014685;28;20200;-88
2022/12/26 05:31:39;;;;;;;39.27;19.83;;;4.10;99.90;;;;;;4997991;28;20638;-85
2022/12/26 05:34:19;;;;;;;40.33;20.10;;;4.10;99.90;;;;;;5014559;28;20196;-85
2022/12/26 05:36:49;;;;;;;42.40;19.87;;;4.10;99.90;;;;;;4997686;28;20208;-86
2022/12/26 05:39:16;;;;;;;37.57;18.47;;;4.10;99.90;;;;;;5014404;28;20211;-86
2022/12/26 05:41:43;;;;;;;37.43;18.17;;;4.10;99.90;;;;;;4998162;28;20230;-86
2022/12/26 05:44:11;;;;;;;40.97;19.33;;;4.10;99.90;;;;;;4997787;28;20196;-86
2022/12/26 05:46:38;;;;;;;40.77;19.13;;;4.10;99.90;;;;;;4998225;28;20295;-86
2022/12/26 05:49:05;;;;;;;36.33;17.73;;;4.10;99.90;;;;;;5013679;28;20250;-85
2022/12/26 05:51:33;;;;;;;37.30;18.37;;;4.10;99.90;;;;;;4997953;28;20614;-88
2022/12/26 05:54:00;;;;;;;33.57;17.20;;;4.10;99.90;;;;;;5023161;28;20204;-86
2022/12/26 05:56:27;;;;;;;34.87;17.77;;;4.10;99.90;;;;;;5034451;28;20232;-87
2022/12/26 05:58:59;;;;;;;32.67;16.53;;;4.10;99.90;;;;;;5050764;28;20202;-84
2022/12/26 06:01:27;;;;;;;37.20;17.57;;;4.20;99.90;;;;;;5035464;28;20195;-90
2022/12/26 06:03:59;;;;;;;32.63;16.60;;;4.10;99.90;;;;;;5034174;28;20202;-89
2022/12/26 06:06:26;;;;;;;30.53;16.87;;;4.10;99.90;;;;;;5035293;28;20196;-86
2022/12/26 06:08:55;;;;;;;32.47;16.40;;;4.20;99.90;;;;;;5034105;28;20252;-89
2022/12/26 06:11:25;;;;;;;29.47;15.40;;;4.20;99.90;;;;;;5034236;28;20674;-88
2022/12/26 06:13:54;;;;;;;31.13;15.13;;;4.20;99.90;;;;;;5034058;28;20207;-84
2022/12/26 06:16:22;;;;;;;29.00;14.93;;;4.30;99.90;;;;;;5035225;28;20268;-88
2022/12/26 06:18:49;;;;;;;28.50;15.17;;;4.30;99.90;;;;;;5018181;28;20196;-83
2022/12/26 06:21:18;;;;;;;27.57;14.80;;;4.20;99.90;;;;;;5035531;28;20176;-88
2022/12/26 06:23:47;;;;;;;28.17;15.20;;;4.30;99.90;;;;;;5050410;28;20200;-90
2022/12/26 06:26:16;;;;;;;25.93;14.67;;;4.30;99.90;;;;;;5033537;28;20199;-91
2022/12/26 06:28:43;;;;;;;25.03;14.80;;;4.20;99.90;;;;;;5033876;28;20223;-93
2022/12/26 06:31:19;;;;;;;26.80;14.77;;;4.30;99.90;;;;;;5033732;28;20295;-83
2022/12/26 06:33:50;;;;;;;26.77;14.03;;;4.30;99.90;;;;;;5034797;28;20191;-86
2022/12/26 06:36:20;;;;;;;27.90;14.10;;;4.40;99.90;;;;;;5017236;28;20204;-88
2022/12/26 06:38:47;;;;;;;25.13;14.13;;;4.30;99.90;;;;;;5033412;28;20286;-86
2022/12/26 06:41:17;;;;;;;25.20;14.27;;;4.40;99.90;;;;;;5033494;28;20286;-85
2022/12/26 06:43:44;;;;;;;25.03;13.70;;;4.30;99.90;;;;;;5016906;28;20250;-84
2022/12/26 06:46:15;;;;;;;24.17;13.70;;;4.30;99.90;;;;;;5050122;28;20587;-82
2022/12/26 06:48:44;;;;;;;26.77;14.67;;;4.30;99.90;;;;;;5033198;28;20270;-85
2022/12/26 06:51:15;;;;;;;27.13;14.27;;;4.40;99.90;;;;;;5033164;28;20204;-90
2022/12/26 06:53:43;;;;;;;25.27;14.63;;;4.40;99.90;;;;;;5033224;28;20207;-88
2022/12/26 06:56:14;;;;;;;23.87;14.03;;;4.30;99.90;;;;;;5033439;28;20200;-92
2022/12/26 06:58:41;;;;;;;28.00;15.23;;;4.30;99.90;;;;;;5033409;28;20640;-85
2022/12/26 07:01:13;;;;;;;27.00;14.97;;;4.30;99.90;;;;;;5016702;28;20536;-94
2022/12/26 07:03:47;;;;;;;29.47;15.97;;;4.40;99.90;;;;;;5033575;28;20199;-96
2022/12/26 07:06:29;;;;;;;26.63;15.33;;;4.50;99.90;;;;;;5034531;28;20239;-95
2022/12/26 07:09:03;;;;;;;26.93;15.13;;;4.30;99.90;;;;;;5034106;28;20215;-82
2022/12/26 07:11:35;;;;;;;27.03;14.67;;;4.40;99.90;;;;;;5032705;28;20230;-91
2022/12/26 07:14:03;;;;;;;28.77;15.27;;;4.30;99.90;;;;;;5034675;28;20223;-92
2022/12/26 07:16:35;;;;;;;24.23;14.20;;;4.40;99.90;;;;;;5033003;28;20188;-89
2022/12/26 07:19:03;;;;;;;25.40;14.60;;;4.40;99.90;;;;;;5034198;28;20196;-86
2022/12/26 07:21:31;;;;;;;27.27;15.17;;;4.30;99.90;;;;;;5039024;28;20568;-92
2022/12/26 07:24:17;;;;;;;25.40;14.03;;;4.30;99.90;;;;;;5019310;28;20199;-91
2022/12/26 07:26:45;;;;;;;25.57;14.17;;;4.50;99.90;;;;;;5016520;28;20215;-91
2022/12/26 07:29:15;;;;;;;25.63;14.27;;;4.50;99.90;;;;;;5033086;28;20672;-91
2022/12/26 07:31:43;;;;;;;25.17;15.07;;;4.40;99.90;;;;;;5016720;28;20197;-84
2022/12/26 07:34:13;;;;;;;23.93;14.37;;;4.40;99.90;;;;;;5032521;28;20611;-90
2022/12/26 07:36:41;;;;;;;23.33;14.23;;;4.40;99.90;;;;;;5033864;28;20196;-83
2022/12/26 07:39:13;;;;;;;24.33;14.30;;;4.40;99.90;;;;;;5032924;28;20247;-91
2022/12/26 07:41:59;;;;;;;24.47;13.80;;;4.40;99.90;;;;;;5016032;28;20200;-93
2022/12/26 07:44:31;;;;;;;25.87;14.67;;;4.40;99.90;;;;;;5032730;28;20197;-88
2022/12/26 07:47:01;;;;;;;25.83;15.17;;;4.40;99.90;;;;;;5033090;28;20266;-89
2022/12/26 07:49:31;;;;;;;26.20;14.40;;;4.40;99.90;;;;;;5033862;28;20624;-83
2022/12/26 07:51:58;;;;;;;27.30;14.63;;;4.50;99.90;;;;;;5032910;28;20197;-85
2022/12/26 07:54:27;;;;;;;26.70;14.73;;;4.50;99.90;;;;;;5032448;28;20183;-87
2022/12/26 07:56:55;;;;;;;26.63;14.57;;;4.50;99.90;;;;;;5033373;28;20202;-89
2022/12/26 07:59:42;;;;;;;25.77;14.50;;;4.50;99.90;;;;;;5032487;28;20278;-85
2022/12/26 08:02:10;;;;;;;24.10;14.37;;;4.50;99.90;;;;;;5032313;28;20751;-88
2022/12/26 08:04:37;;;;;;;27.03;15.03;;;4.50;99.90;;;;;;5032244;28;20229;-85
2022/12/26 08:07:11;;;;;;;26.93;14.27;;;4.60;99.90;;;;;;5033699;28;20216;-86
2022/12/26 08:09:43;;;;;;;25.27;14.17;;;4.70;99.90;;;;;;5033225;28;20244;-83
2022/12/26 08:12:11;;;;;;;26.30;15.00;;;4.70;99.90;;;;;;5031802;28;20195;-83
2022/12/26 08:14:39;;;;;;;24.67;13.63;;;4.60;99.90;;;;;;5032376;28;20195;-84
2022/12/26 08:17:07;;;;;;;28.57;14.90;;;4.70;99.90;;;;;;5032010;28;20205;-84
2022/12/26 08:19:34;;;;;;;26.37;14.33;;;4.70;99.90;;;;;;5031502;28;20543;-86
2022/12/26 08:22:02;;;;;;;25.37;14.57;;;4.70;99.90;;;;;;5048420;28;20200;-87
2022/12/26 08:24:29;;;;;;;26.10;13.90;;;4.80;99.90;;;;;;5032072;28;20202;-87
2022/12/26 08:26:57;;;;;;;26.33;14.17;;;4.80;99.90;;;;;;5048576;28;20223;-87
2022/12/26 08:29:23;;;;;;;26.67;14.40;;;4.80;99.90;;;;;;5031766;28;20252;-85
2022/12/26 08:31:51;;;;;;;27.27;14.23;;;4.80;99.90;;;;;;5031921;28;20533;-88
2022/12/26 08:34:18;;;;;;;24.97;14.20;;;4.90;99.90;;;;;;5031893;28;20203;-85
2022/12/26 08:36:45;;;;;;;23.17;13.70;;;4.90;99.90;;;;;;5031706;28;20683;-85
2022/12/26 08:39:12;;;;;;;25.20;13.80;;;5.00;99.90;;;;;;5031801;28;20663;-84
2022/12/26 08:41:39;;;;;;;22.87;13.53;;;5.00;99.90;;;;;;5048206;28;20267;-87
2022/12/26 08:44:08;;;;;;;26.47;13.73;;;4.90;99.90;;;;;;5031475;28;20201;-84
2022/12/26 08:46:53;;;;;;;27.40;14.17;;;4.90;99.90;;;;;;5031530;28;20608;-86
2022/12/26 08:49:20;;;;;;;26.47;14.53;;;5.00;99.90;;;;;;5031623;28;20692;-84
2022/12/26 08:51:47;;;;;;;26.90;14.53;;;5.10;99.90;;;;;;5031961;28;20200;-86
2022/12/26 08:54:16;;;;;;;25.87;14.10;;;5.10;99.90;;;;;;5041299;28;20193;-87
2022/12/26 08:56:44;;;;;;;25.97;14.37;;;5.00;99.90;;;;;;5032160;28;20289;-88
2022/12/26 08:59:11;;;;;;;23.93;13.40;;;5.00;99.90;;;;;;5031966;28;20199;-84
2022/12/26 09:01:42;;;;;;;26.53;13.63;;;5.00;99.90;;;;;;5031552;28;20196;-87
2022/12/26 09:04:09;;;;;;;26.37;13.70;;;5.10;99.90;;;;;;5033202;28;20203;-86
2022/12/26 09:06:38;;;;;;;26.20;14.10;;;5.10;99.90;;;;;;5031828;28;20321;-84
2022/12/26 09:09:07;;;;;;;26.03;13.77;;;5.30;99.90;;;;;;5033041;28;20257;-86
2022/12/26 09:11:34;;;;;;;26.53;14.07;;;5.30;99.90;;;;;;5034000;28;20223;-85
2022/12/26 09:14:03;;;;;;;26.00;14.60;;;5.30;99.90;;;;;;5032288;28;20303;-88
2022/12/26 09:16:41;;;;;;;25.73;13.27;;;5.30;99.90;;;;;;5032723;28;20708;-89
2022/12/26 09:19:16;;;;;;;28.27;14.30;;;5.40;99.90;;;;;;5032862;28;20538;-84
2022/12/26 09:21:45;;;;;;;27.33;14.47;;;5.40;99.90;;;;;;5033098;28;20200;-88
2022/12/26 09:24:15;;;;;;;26.97;14.17;;;5.50;99.90;;;;;;5031268;28;20691;-85
2022/12/26 09:26:43;;;;;;;26.43;14.17;;;5.60;99.90;;;;;;5035454;28;20215;-86
2022/12/26 09:29:13;;;;;;;24.73;13.80;;;5.50;99.90;;;;;;5051696;28;20216;-87
2022/12/26 09:31:41;;;;;;;26.20;14.10;;;5.60;99.90;;;;;;5034763;28;20546;-88
2022/12/26 09:34:08;;;;;;;27.97;13.97;;;5.50;99.90;;;;;;5034985;28;20282;-85
2022/12/26 09:36:37;;;;;;;26.83;14.07;;;5.50;99.90;;;;;;5034755;28;20206;-89
2022/12/26 09:39:05;;;;;;;25.37;14.33;;;5.60;99.90;;;;;;5037083;28;20594;-86
2022/12/26 09:42:06;;;;;;;27.07;14.07;;;5.60;99.90;;;;;;5034552;28;20201;-85
2022/12/26 09:44:59;;;;;;;27.97;14.83;;;5.60;99.90;;;;;;5034577;28;20195;-89
2022/12/26 09:47:31;;;;;;;25.97;14.67;;;5.70;99.90;;;;;;5035952;28;20222;-86
2022/12/26 09:50:24;;;;;;;28.60;15.47;;;5.70;99.90;;;;;;5041277;28;20222;-88
2022/12/26 09:53:02;;;;;;;30.13;15.23;;;5.70;99.90;;;;;;5014773;28;20197;-86
2022/12/26 09:55:52;;;;;;;30.77;15.50;;;5.70;99.90;;;;;;5024485;28;20230;-91
2022/12/26 09:58:29;;;;;;;27.23;15.40;;;5.90;99.90;;;;;;5015402;28;20202;-86
2022/12/26 10:01:20;;;;;;;28.00;15.73;;;5.90;99.90;;;;;;5014233;28;20703;-89
2022/12/26 10:03:59;;;;;;;29.23;15.97;;;6.00;99.90;;;;;;4997673;28;20201;-90
2022/12/26 10:06:40;;;;;;;27.63;15.83;;;6.00;99.90;;;;;;5015900;28;20269;-85
2022/12/26 10:09:37;;;;;;;28.43;16.03;;;6.10;99.90;;;;;;4998649;28;20228;-92
2022/12/26 10:12:35;;;;;;;31.07;16.37;;;6.20;99.90;;;;;;4983938;28;20229;-87
2022/12/26 10:15:14;;;;;;;31.20;15.27;;;6.20;99.90;;;;;;5013565;28;20201;-87
2022/12/26 10:18:22;;;;;;;32.60;16.33;;;6.30;99.90;;;;;;4998758;28;20203;-89
2022/12/26 10:21:32;;;;;;;32.30;16.30;;;6.30;99.90;;;;;;4997313;28;20672;-89
2022/12/26 10:24:14;;;;;;;29.57;16.17;;;6.40;99.90;;;;;;5014010;28;20206;-92
2022/12/26 10:26:55;;;;;;;30.53;16.83;;;6.50;99.90;;;;;;4999925;28;20218;-93
2022/12/26 10:30:09;;;;;;;33.63;17.10;;;6.60;99.90;;;;;;5022223;28;20222;-89
2022/12/26 10:32:47;;;;;;;30.30;16.53;;;6.60;99.90;;;;;;5034594;28;20216;-92
2022/12/26 10:35:33;;;;;;;29.10;16.10;;;6.60;99.90;;;;;;5038200;28;20190;-86
2022/12/26 10:38:50;;;;;;;30.27;16.77;;;6.70;99.90;;;;;;5041522;28;20197;-89
2022/12/26 10:41:32;;;;;;;31.20;16.60;;;6.70;99.90;;;;;;5037460;28;20709;-90
2022/12/26 10:44:19;;;;;;;27.20;15.47;;;6.80;99.90;;;;;;5034544;28;20200;-93
2022/12/26 10:47:27;;;;;;;31.40;17.20;;;6.80;99.90;;;;;;5034656;28;20195;-94
2022/12/26 10:50:04;;;;;;;28.73;16.27;;;6.90;99.90;;;;;;5036508;28;20218;-93
2022/12/26 10:52:41;;;;;;;30.50;16.17;;;6.90;99.90;;;;;;5035933;28;20182;-95
2022/12/26 10:55:34;;;;;;;29.47;16.63;;;7.00;99.90;;;;;;5032986;28;20243;-86
2022/12/26 10:58:43;;;;;;;30.00;16.67;;;7.10;99.90;;;;;;5034006;28;20266;-91
2022/12/26 11:01:46;;;;;;;30.43;16.80;;;7.20;99.90;;;;;;5019140;28;20190;-89
2022/12/26 11:04:25;;;;;;;28.40;16.10;;;7.30;99.90;;;;;;5034348;28;20202;-86
2022/12/26 11:07:42;;;;;;;31.50;16.37;;;7.20;99.90;;;;;;5032764;28;20224;-85
2022/12/26 11:11:04;;;;;;;29.97;16.27;;;7.30;99.90;;;;;;5032541;28;20199;-84
2022/12/26 11:13:51;;;;;;;32.77;16.37;;;7.40;99.90;;;;;;5034606;28;20655;-85
2022/12/26 11:16:37;;;;;;;29.10;15.83;;;7.40;99.90;;;;;;5034375;28;20207;-85
2022/12/26 11:19:28;;;;;;;29.97;16.60;;;7.50;99.90;;;;;;5035625;28;20184;-85
2022/12/26 11:22:27;;;;;;;26.93;14.93;;;7.60;99.90;;;;;;5035491;28;20255;-93
2022/12/26 11:25:33;;;;;;;29.70;16.03;;;7.50;99.90;;;;;;5034143;28;20204;-87
2022/12/26 11:28:28;;;;;;;29.20;15.30;;;7.60;99.90;;;;;;5034697;28;20218;-85
2022/12/26 11:30:56;;;;;;;29.73;16.17;;;7.60;99.90;;;;;;5034332;28;20191;-84
2022/12/26 11:33:30;;;;;;;30.57;15.93;;;7.60;99.90;;;;;;5034572;28;20183;-84
2022/12/26 11:36:13;;;;;;;30.63;16.40;;;7.80;99.90;;;;;;5033642;28;20196;-86
2022/12/26 11:38:56;;;;;;;27.80;16.67;;;7.70;99.90;;;;;;5034200;28;20198;-94
2022/12/26 11:41:38;;;;;;;31.93;16.17;;;7.80;99.90;;;;;;5034102;28;20205;-85
2022/12/26 11:44:27;;;;;;;30.63;16.43;;;7.90;99.90;;;;;;5033012;28;20197;-85
2022/12/26 11:47:03;;;;;;;29.73;16.13;;;7.90;99.90;;;;;;5033591;28;20241;-85
2022/12/26 11:49:38;;;;;;;28.80;15.30;;;8.00;99.90;;;;;;5035023;28;20286;-87
2022/12/26 11:52:36;;;;;;;25.80;14.60;;;8.00;99.90;;;;;;5032904;28;20251;-85
2022/12/26 11:55:25;;;;;;;23.63;14.33;;;8.20;99.90;;;;;;5032754;28;20306;-86
2022/12/26 11:58:16;;;;;;;24.67;14.23;;;8.40;99.90;;;;;;5033963;28;20279;-84
2022/12/26 12:01:05;;;;;;;23.03;12.97;;;8.50;99.90;;;;;;5033869;28;20190;-89
2022/12/26 12:03:53;;;;;;;24.13;13.13;;;8.70;99.90;;;;;;5035051;28;20181;-93
2022/12/26 12:06:49;;;;;;;19.17;11.10;;;8.90;99.90;;;;;;5017965;28;20646;-93
2022/12/26 12:10:13;;;;;;;20.30;10.47;;;9.10;99.90;;;;;;5034931;28;20638;-90
2022/12/26 12:13:12;;;;;;;19.83;10.67;;;9.40;99.90;;;;;;5033043;28;20206;-94
2022/12/26 12:16:29;;;;;;;19.57;10.73;;;9.60;99.90;;;;;;5018442;28;20199;-92
2022/12/26 12:19:47;;;;;;;20.53;10.00;;;9.70;99.90;;;;;;5032912;28;20198;-91
2022/12/26 12:23:07;;;;;;;14.97;9.77;;;9.80;99.90;;;;;;4979912;28;20578;-91
2022/12/26 12:26:21;;;;;;;19.77;10.53;;;9.90;99.90;;;;;;4994336;28;20192;-88
2022/12/26 12:29:57;;;;;;;16.43;9.83;;;9.90;99.90;;;;;;5011792;28;20219;-93
2022/12/26 12:33:00;;;;;;;16.47;9.97;;;9.90;99.90;;;;;;4935417;29;20306;-93
2022/12/26 12:35:43;;;;;;;19.07;9.93;;;9.90;99.90;;;;;;4934962;29;20202;-93
2022/12/26 12:38:45;;;;;;;18.47;9.97;;;9.70;99.90;;;;;;4934632;29;20238;-89
2022/12/26 12:41:59;;;;;;;18.50;10.23;;;9.70;99.90;;;;;;4920337;29;20203;-93
2022/12/26 12:45:14;;;;;;;17.60;9.80;;;9.70;99.90;;;;;;4918287;29;20771;-88
2022/12/26 12:48:05;;;;;;;17.73;10.20;;;9.70;99.90;;;;;;4934176;29;20273;-91
2022/12/26 12:51:17;;;;;;;18.60;10.97;;;9.60;99.90;;;;;;4918247;29;20229;-92
2022/12/26 12:54:34;;;;;;;18.00;10.80;;;9.60;99.90;;;;;;4877268;29;20623;-89
2022/12/26 12:57:31;;;;;;;18.03;10.07;;;9.50;99.90;;;;;;4896344;29;20657;-93
2022/12/26 13:00:11;;;;;;;21.00;10.47;;;9.60;99.90;;;;;;4897019;29;20228;-88
2022/12/26 13:03:03;;;;;;;17.50;10.50;;;9.70;99.90;;;;;;4899302;29;20294;-87
2022/12/26 13:05:46;;;;;;;18.60;10.63;;;9.60;99.90;;;;;;4910465;29;20703;-89
2022/12/26 13:08:22;;;;;;;21.00;11.10;;;9.60;99.90;;;;;;4958126;29;20273;-87
2022/12/26 13:10:54;;;;;;;20.03;10.97;;;9.60;99.90;;;;;;4958482;29;20232;-86
2022/12/26 13:13:30;;;;;;;19.20;11.10;;;9.70;99.90;;;;;;4940452;29;20218;-86
2022/12/26 13:16:13;;;;;;;21.70;11.30;;;9.80;99.90;;;;;;4939869;29;20202;-88
2022/12/26 13:18:57;;;;;;;19.70;10.97;;;10.00;99.90;;;;;;4940131;29;20205;-85
2022/12/26 13:21:26;;;;;;;20.70;11.70;;;10.10;99.90;;;;;;4924374;29;20217;-86
2022/12/26 13:24:23;;;;;;;19.80;10.63;;;10.30;99.90;;;;;;4940589;29;20272;-90
2022/12/26 13:26:53;;;;;;;18.47;10.57;;;10.20;99.90;;;;;;4939792;29;20226;-85
2022/12/26 13:29:41;;;;;;;17.70;10.37;;;10.20;99.90;;;;;;4948397;28;20368;-85
2022/12/26 13:32:21;;;;;;;17.17;10.47;;;10.10;99.90;;;;;;5034996;28;20207;-85
2022/12/26 13:34:49;;;;;;;19.97;10.87;;;10.10;99.90;;;;;;5034547;28;20294;-84
2022/12/26 13:37:37;;;;;;;18.07;9.80;;;10.00;99.90;;;;;;5034904;28;20532;-83
2022/12/26 13:40:20;;;;;;;20.07;10.17;;;10.00;99.90;;;;;;5034502;28;20611;-86
2022/12/26 13:45:56;;;;;;;16.83;9.60;;;10.00;99.90;;;;;;5036065;28;20197;-86
2022/12/26 13:48:31;;;;;;;15.67;8.90;;;10.00;99.90;;;;;;5035205;28;20199;-87
2022/12/26 13:51:05;;;;;;;14.33;9.20;;;10.00;99.90;;;;;;5033957;28;20245;-87
2022/12/26 13:53:40;;;;;;;17.10;8.90;;;10.00;99.90;;;;;;5036155;28;20264;-86
2022/12/26 14:00:33;;;;;;;16.50;8.00;;;10.10;99.90;;;;;;5050570;28;20199;-89
2022/12/26 14:03:12;;;;;;;15.20;8.50;;;10.00;99.90;;;;;;4997565;28;20200;-88
2022/12/26 14:05:54;;;;;;;15.13;8.30;;;9.90;99.90;;;;;;5014238;28;20744;-93
2022/12/26 14:08:52;;;;;;;15.93;8.00;;;10.00;99.90;;;;;;5013708;28;20224;-93
2022/12/26 14:12:14;;;;;;;15.43;8.27;;;10.00;99.90;;;;;;4997035;28;20206;-83
2022/12/26 14:15:24;;;;;;;13.97;8.27;;;10.00;99.90;;;;;;5012516;28;20295;-85
2022/12/26 14:18:07;;;;;;;13.30;8.07;;;9.90;99.90;;;;;;4996741;28;20231;-84
2022/12/26 14:20:35;;;;;;;16.10;8.30;;;9.80;99.90;;;;;;5013377;28;20558;-85
2022/12/26 14:23:15;;;;;;;16.60;8.83;;;9.80;99.90;;;;;;5013520;28;20212;-94
2022/12/26 14:25:57;;;;;;;17.43;9.13;;;9.80;99.90;;;;;;5014054;28;20192;-84
2022/12/26 14:28:46;;;;;;;16.60;9.20;;;9.70;99.90;;;;;;4998306;28;20224;-94
2022/12/26 14:31:36;;;;;;;14.70;8.77;;;9.70;99.90;;;;;;4997429;28;20653;-83
2022/12/26 14:34:30;;;;;;;13.97;8.80;;;9.70;99.90;;;;;;4996975;28;20208;-90
2022/12/26 14:37:03;;;;;;;15.97;9.23;;;9.70;99.90;;;;;;5025819;28;20249;-90
2022/12/26 14:39:41;;;;;;;16.57;9.50;;;9.70;99.90;;;;;;5035630;28;20214;-88
2022/12/26 14:45:30;;;;;;;17.23;9.37;;;9.70;99.90;;;;;;5034527;28;20193;-92
2022/12/26 14:48:02;;;;;;;17.07;9.57;;;9.60;99.90;;;;;;5033992;28;20265;-91
2022/12/26 14:51:20;;;;;;;18.60;10.27;;;9.60;99.90;;;;;;5034150;28;20226;-88
2022/12/26 14:54:24;;;;;;;16.90;10.20;;;9.50;99.90;;;;;;5033538;28;20213;-82
2022/12/26 14:56:54;;;;;;;18.07;10.40;;;9.50;99.90;;;;;;5026643;28;20567;-87
2022/12/26 15:00:34;;;;;;;17.37;10.40;;;9.50;99.90;;;;;;5034495;28;20215;-88
2022/12/26 15:03:05;;;;;;;19.30;10.60;;;9.50;99.90;;;;;;4956683;28;20198;-92
2022/12/26 15:05:37;;;;;;;20.27;11.03;;;9.50;99.90;;;;;;4954342;29;20202;-88
2022/12/26 15:08:08;;;;;;;21.67;10.90;;;9.50;99.90;;;;;;4954793;28;20366;-86
2022/12/26 15:11:00;;;;;;;19.00;11.30;;;9.60;99.90;;;;;;4938659;29;20225;-89
2022/12/26 15:14:04;;;;;;;20.53;11.27;;;9.50;99.90;;;;;;4954655;28;20206;-87
2022/12/26 15:16:56;;;;;;;19.97;11.60;;;9.40;99.90;;;;;;4938079;29;20643;-86
2022/12/26 15:19:31;;;;;;;21.33;11.57;;;9.40;99.90;;;;;;4938174;28;20668;-85
2022/12/26 15:22:25;;;;;;;21.40;12.27;;;9.40;99.90;;;;;;4937573;29;20212;-87
2022/12/26 15:25:13;;;;;;;24.67;13.40;;;9.40;99.90;;;;;;4953802;28;20679;-86
2022/12/26 15:28:10;;;;;;;25.97;13.00;;;9.40;99.90;;;;;;4937696;29;20218;-87
2022/12/26 15:30:50;;;;;;;22.43;13.20;;;9.50;99.90;;;;;;4862254;29;20297;-87
2022/12/26 15:33:29;;;;;;;21.80;12.97;;;9.40;99.90;;;;;;4878290;29;20201;-87
2022/12/26 15:36:33;;;;;;;23.20;12.87;;;9.30;99.90;;;;;;4881504;29;20245;-88
2022/12/26 15:39:15;;;;;;;22.40;12.43;;;9.20;99.90;;;;;;4934689;28;20209;-88
2022/12/26 15:42:08;;;;;;;21.73;13.30;;;9.20;99.90;;;;;;4973079;28;20209;-88
2022/12/26 15:44:47;;;;;;;21.40;12.77;;;9.20;99.90;;;;;;4972908;28;20197;-87
2022/12/26 15:47:37;;;;;;;21.20;12.77;;;9.20;99.90;;;;;;4956011;28;20307;-85
2022/12/26 15:50:31;;;;;;;23.77;12.63;;;9.10;99.90;;;;;;5021101;28;20310;-84
2022/12/26 15:52:58;;;;;;;21.63;12.73;;;9.10;99.90;;;;;;5032777;28;20192;-86